<?xml version="1.0" encoding="UTF-8" standalone="no" ?>
<gpx xmlns="http://www.topografix.com/GPX/1/1" xmlns:xsi="http://www.w3.org/2001/XMLSchema-instance" xsi:schemaLocation="http://www.topografix.com/GPX/1/1 http://www.topografix.com/GPX/1/1/gpx.xsd" version="1.1" creator="VisuGPX - https://www.visugpx.com">
  <metadata>
    <name>Turquie_100points</name>
  </metadata>
  <trk>
    <name><![CDATA[Tour d'Europe: étape 524]]></name>
    <extensions>
      <line xmlns="http://www.topografix.com/GPX/gpx_style/0/2">
        <color>FFFF00</color>
        <width>4</width>
      </line>
    </extensions>
    <trkseg>
      <trkpt lat="40.5335" lon="41.54552">
        <ele>1093.211153</ele>
        <time>2021-12-04T07:38:16.257Z</time>
      </trkpt>
      <trkpt lat="40.53281" lon="41.54498">
        <ele>1095.807323</ele>
        <time>2021-12-04T07:44:21.938Z</time>
      </trkpt>
      <trkpt lat="40.53176" lon="41.54316">
        <ele>1116.659055</ele>
        <time>2021-12-04T07:46:02.933Z</time>
      </trkpt>
      <trkpt lat="40.53006" lon="41.5417">
        <ele>1122.002112</ele>
        <time>2021-12-04T07:47:43.951Z</time>
      </trkpt>
      <trkpt lat="40.5286" lon="41.5393">
        <ele>1125.267692</ele>
        <time>2021-12-04T07:48:47.933Z</time>
      </trkpt>
      <trkpt lat="40.52782" lon="41.53673">
        <ele>1127.842602</ele>
        <time>2021-12-04T07:49:58.954Z</time>
      </trkpt>
      <trkpt lat="40.52684" lon="41.53441">
        <ele>1129.972825</ele>
        <time>2021-12-04T07:51:17.930Z</time>
      </trkpt>
      <trkpt lat="40.52487" lon="41.53346">
        <ele>1125.948903</ele>
        <time>2021-12-04T07:52:12.938Z</time>
      </trkpt>
      <trkpt lat="40.52256" lon="41.53423">
        <ele>1121.202711</ele>
        <time>2021-12-04T07:52:52.930Z</time>
      </trkpt>
      <trkpt lat="40.52062" lon="41.53407">
        <ele>1118.980066</ele>
        <time>2021-12-04T07:53:48.941Z</time>
      </trkpt>
      <trkpt lat="40.51909" lon="41.53209">
        <ele>1125.93905</ele>
        <time>2021-12-04T07:54:48.935Z</time>
      </trkpt>
      <trkpt lat="40.51718" lon="41.53044">
        <ele>1124.667031</ele>
        <time>2021-12-04T07:55:51.939Z</time>
      </trkpt>
      <trkpt lat="40.51601" lon="41.52817">
        <ele>1130.76595</ele>
        <time>2021-12-04T07:56:57.947Z</time>
      </trkpt>
      <trkpt lat="40.51398" lon="41.52742">
        <ele>1134.609522</ele>
        <time>2021-12-04T07:58:11.936Z</time>
      </trkpt>
      <trkpt lat="40.51237" lon="41.52596">
        <ele>1136.365948</ele>
        <time>2021-12-04T07:59:38.949Z</time>
      </trkpt>
      <trkpt lat="40.5115" lon="41.52359">
        <ele>1142.232377</ele>
        <time>2021-12-04T08:00:53.923Z</time>
      </trkpt>
      <trkpt lat="40.5098" lon="41.52167">
        <ele>1145.491557</ele>
        <time>2021-12-04T08:01:53.949Z</time>
      </trkpt>
      <trkpt lat="40.50785" lon="41.52066">
        <ele>1150.753441</ele>
        <time>2021-12-04T08:03:05.938Z</time>
      </trkpt>
      <trkpt lat="40.50573" lon="41.52006">
        <ele>1166.850884</ele>
        <time>2021-12-04T08:04:19.953Z</time>
      </trkpt>
      <trkpt lat="40.50372" lon="41.52068">
        <ele>1164.365474</ele>
        <time>2021-12-04T08:05:19.935Z</time>
      </trkpt>
      <trkpt lat="40.5019" lon="41.51979">
        <ele>1155.597855</ele>
        <time>2021-12-04T08:06:32.940Z</time>
      </trkpt>
      <trkpt lat="40.50102" lon="41.517">
        <ele>1156.08066</ele>
        <time>2021-12-04T08:07:32.949Z</time>
      </trkpt>
      <trkpt lat="40.49942" lon="41.51615">
        <ele>1166.127029</ele>
        <time>2021-12-04T08:08:33.924Z</time>
      </trkpt>
      <trkpt lat="40.49765" lon="41.51563">
        <ele>1167.24495</ele>
        <time>2021-12-04T08:09:35.945Z</time>
      </trkpt>
      <trkpt lat="40.49584" lon="41.51488">
        <ele>1165.713018</ele>
        <time>2021-12-04T08:10:48.928Z</time>
      </trkpt>
      <trkpt lat="40.49375" lon="41.51536">
        <ele>1170.502443</ele>
        <time>2021-12-04T08:11:53.939Z</time>
      </trkpt>
      <trkpt lat="40.49198" lon="41.51477">
        <ele>1166.465899</ele>
        <time>2021-12-04T08:13:17.953Z</time>
      </trkpt>
      <trkpt lat="40.49049" lon="41.51291">
        <ele>1165.985129</ele>
        <time>2021-12-04T08:14:36.940Z</time>
      </trkpt>
      <trkpt lat="40.48902" lon="41.51095">
        <ele>1175.502169</ele>
        <time>2021-12-04T08:15:49.977Z</time>
      </trkpt>
      <trkpt lat="40.48734" lon="41.50915">
        <ele>1175.593142</ele>
        <time>2021-12-04T08:17:07.936Z</time>
      </trkpt>
      <trkpt lat="40.48629" lon="41.50694">
        <ele>1184.22975</ele>
        <time>2021-12-04T08:18:59.946Z</time>
      </trkpt>
      <trkpt lat="40.4847" lon="41.5053">
        <ele>1191.739267</ele>
        <time>2021-12-04T08:20:38.958Z</time>
      </trkpt>
      <trkpt lat="40.48259" lon="41.50369">
        <ele>1182.954471</ele>
        <time>2021-12-04T08:21:35.951Z</time>
      </trkpt>
      <trkpt lat="40.48055" lon="41.50413">
        <ele>1182.927503</ele>
        <time>2021-12-04T08:22:15.941Z</time>
      </trkpt>
      <trkpt lat="40.4786" lon="41.50527">
        <ele>1186.618406</ele>
        <time>2021-12-04T08:23:25.941Z</time>
      </trkpt>
      <trkpt lat="40.47655" lon="41.50469">
        <ele>1184.316436</ele>
        <time>2021-12-04T08:24:30.982Z</time>
      </trkpt>
      <trkpt lat="40.47493" lon="41.50302">
        <ele>1183.424046</ele>
        <time>2021-12-04T08:25:22.955Z</time>
      </trkpt>
      <trkpt lat="40.47298" lon="41.50184">
        <ele>1180.345529</ele>
        <time>2021-12-04T08:26:22.949Z</time>
      </trkpt>
      <trkpt lat="40.4709" lon="41.50146">
        <ele>1181.252478</ele>
        <time>2021-12-04T08:27:22.939Z</time>
      </trkpt>
      <trkpt lat="40.46879" lon="41.502">
        <ele>1192.032089</ele>
        <time>2021-12-04T08:28:25.977Z</time>
      </trkpt>
      <trkpt lat="40.46686" lon="41.50286">
        <ele>1201.491746</ele>
        <time>2021-12-04T08:29:25.942Z</time>
      </trkpt>
      <trkpt lat="40.46495" lon="41.50385">
        <ele>1196.09563</ele>
        <time>2021-12-04T08:30:33.950Z</time>
      </trkpt>
      <trkpt lat="40.46304" lon="41.50487">
        <ele>1194.126895</ele>
        <time>2021-12-04T08:31:47.948Z</time>
      </trkpt>
      <trkpt lat="40.46122" lon="41.50626">
        <ele>1188.212717</ele>
        <time>2021-12-04T08:33:12.940Z</time>
      </trkpt>
      <trkpt lat="40.45935" lon="41.50621">
        <ele>1197.707679</ele>
        <time>2021-12-04T08:34:31.955Z</time>
      </trkpt>
      <trkpt lat="40.45799" lon="41.5042">
        <ele>1253.461991</ele>
        <time>2021-12-04T08:35:43.976Z</time>
      </trkpt>
      <trkpt lat="40.45652" lon="41.50232">
        <ele>1259.373593</ele>
        <time>2021-12-04T08:37:42.947Z</time>
      </trkpt>
      <trkpt lat="40.45452" lon="41.50317">
        <ele>1245.49381</ele>
        <time>2021-12-04T08:39:03.954Z</time>
      </trkpt>
      <trkpt lat="40.45253" lon="41.50249">
        <ele>1251.064571</ele>
        <time>2021-12-04T08:40:08.967Z</time>
      </trkpt>
      <trkpt lat="40.45072" lon="41.50349">
        <ele>1255.580355</ele>
        <time>2021-12-04T08:42:01.958Z</time>
      </trkpt>
      <trkpt lat="40.44883" lon="41.50355">
        <ele>1270.680399</ele>
        <time>2021-12-04T08:43:51.940Z</time>
      </trkpt>
      <trkpt lat="40.44708" lon="41.50334">
        <ele>1291.881797</ele>
        <time>2021-12-04T08:45:38.946Z</time>
      </trkpt>
      <trkpt lat="40.44515" lon="41.50363">
        <ele>1295.341852</ele>
        <time>2021-12-04T08:47:42.957Z</time>
      </trkpt>
      <trkpt lat="40.44311" lon="41.50294">
        <ele>1282.490109</ele>
        <time>2021-12-04T08:49:31.950Z</time>
      </trkpt>
      <trkpt lat="40.44143" lon="41.50148">
        <ele>1283.146829</ele>
        <time>2021-12-04T08:51:01.939Z</time>
      </trkpt>
      <trkpt lat="40.44004" lon="41.49939">
        <ele>1287.519577</ele>
        <time>2021-12-04T08:52:11.970Z</time>
      </trkpt>
      <trkpt lat="40.43877" lon="41.49715">
        <ele>1284.252904</ele>
        <time>2021-12-04T08:53:11.939Z</time>
      </trkpt>
      <trkpt lat="40.43655" lon="41.49662">
        <ele>1275.191571</ele>
        <time>2021-12-04T08:53:54.955Z</time>
      </trkpt>
      <trkpt lat="40.43453" lon="41.49524">
        <ele>1267.72242</ele>
        <time>2021-12-04T08:54:35.956Z</time>
      </trkpt>
      <trkpt lat="40.43245" lon="41.49473">
        <ele>1266.010171</ele>
        <time>2021-12-04T08:55:27.950Z</time>
      </trkpt>
      <trkpt lat="40.43051" lon="41.49378">
        <ele>1273.554076</ele>
        <time>2021-12-04T08:56:32.948Z</time>
      </trkpt>
      <trkpt lat="40.42885" lon="41.49205">
        <ele>1279.432919</ele>
        <time>2021-12-04T08:57:49.952Z</time>
      </trkpt>
      <trkpt lat="40.42731" lon="41.49158">
        <ele>1277.656101</ele>
        <time>2021-12-04T09:33:58.322Z</time>
      </trkpt>
      <trkpt lat="40.42477" lon="41.49032">
        <ele>1278.119429</ele>
        <time>2021-12-04T09:34:38.335Z</time>
      </trkpt>
      <trkpt lat="40.42279" lon="41.48857">
        <ele>1277.929974</ele>
        <time>2021-12-04T09:35:19.329Z</time>
      </trkpt>
      <trkpt lat="40.42072" lon="41.48788">
        <ele>1280.909457</ele>
        <time>2021-12-04T09:36:03.317Z</time>
      </trkpt>
      <trkpt lat="40.41872" lon="41.48851">
        <ele>1281.544991</ele>
        <time>2021-12-04T09:37:06.346Z</time>
      </trkpt>
      <trkpt lat="40.41706" lon="41.49026">
        <ele>1283.714729</ele>
        <time>2021-12-04T09:38:18.328Z</time>
      </trkpt>
      <trkpt lat="40.41554" lon="41.48894">
        <ele>1294.463541</ele>
        <time>2021-12-04T09:39:27.329Z</time>
      </trkpt>
      <trkpt lat="40.41368" lon="41.48807">
        <ele>1302.352493</ele>
        <time>2021-12-04T09:40:29.336Z</time>
      </trkpt>
      <trkpt lat="40.41194" lon="41.48935">
        <ele>1296.510132</ele>
        <time>2021-12-04T09:41:32.348Z</time>
      </trkpt>
      <trkpt lat="40.40983" lon="41.48948">
        <ele>1295.233821</ele>
        <time>2021-12-04T09:42:37.330Z</time>
      </trkpt>
      <trkpt lat="40.40784" lon="41.49023">
        <ele>1303.817093</ele>
        <time>2021-12-04T09:43:48.326Z</time>
      </trkpt>
      <trkpt lat="40.40574" lon="41.49045">
        <ele>1315.60971</ele>
        <time>2021-12-04T09:45:07.340Z</time>
      </trkpt>
      <trkpt lat="40.40375" lon="41.49023">
        <ele>1319.945848</ele>
        <time>2021-12-04T09:46:32.340Z</time>
      </trkpt>
      <trkpt lat="40.40223" lon="41.49182">
        <ele>1316.800394</ele>
        <time>2021-12-04T09:48:08.331Z</time>
      </trkpt>
      <trkpt lat="40.40122" lon="41.49393">
        <ele>1317.08917</ele>
        <time>2021-12-04T09:49:33.335Z</time>
      </trkpt>
      <trkpt lat="40.39935" lon="41.49433">
        <ele>1330.83314</ele>
        <time>2021-12-04T09:51:08.329Z</time>
      </trkpt>
      <trkpt lat="40.39758" lon="41.49537">
        <ele>1334.392398</ele>
        <time>2021-12-04T09:52:42.332Z</time>
      </trkpt>
      <trkpt lat="40.39592" lon="41.49717">
        <ele>1340.126815</ele>
        <time>2021-12-04T09:54:04.332Z</time>
      </trkpt>
      <trkpt lat="40.39394" lon="41.49794">
        <ele>1348.017518</ele>
        <time>2021-12-04T09:55:48.359Z</time>
      </trkpt>
      <trkpt lat="40.39189" lon="41.49823">
        <ele>1350.476525</ele>
        <time>2021-12-04T09:56:54.341Z</time>
      </trkpt>
      <trkpt lat="40.38898" lon="41.49824">
        <ele>1345.424414</ele>
        <time>2021-12-04T09:57:34.339Z</time>
      </trkpt>
      <trkpt lat="40.38711" lon="41.49684">
        <ele>1355.668631</ele>
        <time>2021-12-04T09:58:39.359Z</time>
      </trkpt>
      <trkpt lat="40.38576" lon="41.49478">
        <ele>1359.289373</ele>
        <time>2021-12-04T10:00:04.354Z</time>
      </trkpt>
      <trkpt lat="40.38422" lon="41.49557">
        <ele>1359.038256</ele>
        <time>2021-12-04T10:01:10.367Z</time>
      </trkpt>
      <trkpt lat="40.38349" lon="41.49809">
        <ele>1354.371905</ele>
        <time>2021-12-04T10:02:12.346Z</time>
      </trkpt>
      <trkpt lat="40.38162" lon="41.49944">
        <ele>1357.781596</ele>
        <time>2021-12-04T10:03:27.347Z</time>
      </trkpt>
      <trkpt lat="40.37949" lon="41.49971">
        <ele>1362.627988</ele>
        <time>2021-12-04T10:04:44.365Z</time>
      </trkpt>
      <trkpt lat="40.3778" lon="41.50142">
        <ele>1360.279871</ele>
        <time>2021-12-04T10:05:41.339Z</time>
      </trkpt>
      <trkpt lat="40.37573" lon="41.50091">
        <ele>1355.117604</ele>
        <time>2021-12-04T10:06:43.343Z</time>
      </trkpt>
      <trkpt lat="40.37373" lon="41.50034">
        <ele>1363.684624</ele>
        <time>2021-12-04T10:08:03.355Z</time>
      </trkpt>
      <trkpt lat="40.37178" lon="41.50106">
        <ele>1386.00651</ele>
        <time>2021-12-04T10:09:24.331Z</time>
      </trkpt>
      <trkpt lat="40.36998" lon="41.50245">
        <ele>1394.111853</ele>
        <time>2021-12-04T10:10:43.351Z</time>
      </trkpt>
      <trkpt lat="40.3689" lon="41.50479">
        <ele>1399.806157</ele>
        <time>2021-12-04T10:12:11.338Z</time>
      </trkpt>
      <trkpt lat="40.36706" lon="41.50552">
        <ele>1403.26628</ele>
        <time>2021-12-04T10:13:34.346Z</time>
      </trkpt>
      <trkpt lat="40.36588" lon="41.50695">
        <ele>1404.688848</ele>
        <time>2021-12-04T10:15:03.355Z</time>
      </trkpt>
      <trkpt lat="40.36436" lon="41.50809">
        <ele>1401.949851</ele>
        <time>2021-12-04T10:16:23.390Z</time>
      </trkpt>
      <trkpt lat="40.3623" lon="41.508">
        <ele>1413.052004</ele>
        <time>2021-12-04T10:17:48.353Z</time>
      </trkpt>
      <trkpt lat="40.36055" lon="41.50873">
        <ele>1415.378436</ele>
        <time>2021-12-04T10:19:19.351Z</time>
      </trkpt>
      <trkpt lat="40.35958" lon="41.51092">
        <ele>1429.309557</ele>
        <time>2021-12-04T10:21:03.344Z</time>
      </trkpt>
      <trkpt lat="40.3575" lon="41.51132">
        <ele>1434.683377</ele>
        <time>2021-12-04T10:22:28.396Z</time>
      </trkpt>
      <trkpt lat="40.35544" lon="41.5117">
        <ele>1435.933157</ele>
        <time>2021-12-04T10:23:36.351Z</time>
      </trkpt>
      <trkpt lat="40.35366" lon="41.51047">
        <ele>1442.152725</ele>
        <time>2021-12-04T10:24:48.360Z</time>
      </trkpt>
      <trkpt lat="40.35156" lon="41.51072">
        <ele>1449.12243</ele>
        <time>2021-12-04T10:26:04.387Z</time>
      </trkpt>
      <trkpt lat="40.34972" lon="41.50967">
        <ele>1453.785789</ele>
        <time>2021-12-04T10:27:26.358Z</time>
      </trkpt>
      <trkpt lat="40.34779" lon="41.50871">
        <ele>1457.973478</ele>
        <time>2021-12-04T10:28:45.364Z</time>
      </trkpt>
      <trkpt lat="40.34569" lon="41.50833">
        <ele>1463.783636</ele>
        <time>2021-12-04T10:30:04.351Z</time>
      </trkpt>
      <trkpt lat="40.34369" lon="41.50741">
        <ele>1472.351392</ele>
        <time>2021-12-04T10:31:39.391Z</time>
      </trkpt>
      <trkpt lat="40.34186" lon="41.50624">
        <ele>1476.860451</ele>
        <time>2021-12-04T10:32:59.349Z</time>
      </trkpt>
      <trkpt lat="40.33989" lon="41.50563">
        <ele>1472.417285</ele>
        <time>2021-12-04T10:34:05.368Z</time>
      </trkpt>
      <trkpt lat="40.33774" lon="41.50536">
        <ele>1474.924635</ele>
        <time>2021-12-04T10:35:06.347Z</time>
      </trkpt>
      <trkpt lat="40.33588" lon="41.50615">
        <ele>1478.690699</ele>
        <time>2021-12-04T10:36:44.351Z</time>
      </trkpt>
      <trkpt lat="40.33424" lon="41.50753">
        <ele>1486.702616</ele>
        <time>2021-12-04T10:38:46.388Z</time>
      </trkpt>
      <trkpt lat="40.33265" lon="41.50913">
        <ele>1486.359237</ele>
        <time>2021-12-04T10:40:27.346Z</time>
      </trkpt>
      <trkpt lat="40.33083" lon="41.5109">
        <ele>1484.176339</ele>
        <time>2021-12-04T10:41:30.358Z</time>
      </trkpt>
      <trkpt lat="40.32922" lon="41.51285">
        <ele>1480.979998</ele>
        <time>2021-12-04T10:42:33.368Z</time>
      </trkpt>
      <trkpt lat="40.32771" lon="41.5148">
        <ele>1502.183915</ele>
        <time>2021-12-04T10:46:45.369Z</time>
      </trkpt>
      <trkpt lat="40.32626" lon="41.51668">
        <ele>1507.50451</ele>
        <time>2021-12-04T10:48:10.370Z</time>
      </trkpt>
      <trkpt lat="40.32444" lon="41.51808">
        <ele>1517.330562</ele>
        <time>2021-12-04T10:49:26.355Z</time>
      </trkpt>
      <trkpt lat="40.3229" lon="41.51998">
        <ele>1520.604378</ele>
        <time>2021-12-04T10:50:26.354Z</time>
      </trkpt>
      <trkpt lat="40.32137" lon="41.52172">
        <ele>1522.891643</ele>
        <time>2021-12-04T10:51:36.349Z</time>
      </trkpt>
      <trkpt lat="40.31921" lon="41.52264">
        <ele>1529.181551</ele>
        <time>2021-12-04T10:52:57.363Z</time>
      </trkpt>
      <trkpt lat="40.31722" lon="41.52326">
        <ele>1533.861648</ele>
        <time>2021-12-04T10:54:06.374Z</time>
      </trkpt>
      <trkpt lat="40.31538" lon="41.52449">
        <ele>1535.569671</ele>
        <time>2021-12-04T10:55:26.362Z</time>
      </trkpt>
      <trkpt lat="40.31359" lon="41.5253">
        <ele>1543.009067</ele>
        <time>2021-12-04T10:56:48.361Z</time>
      </trkpt>
      <trkpt lat="40.31159" lon="41.52539">
        <ele>1549.220879</ele>
        <time>2021-12-04T10:58:27.408Z</time>
      </trkpt>
      <trkpt lat="40.30963" lon="41.52594">
        <ele>1552.561419</ele>
        <time>2021-12-04T11:00:00.349Z</time>
      </trkpt>
      <trkpt lat="40.30785" lon="41.52726">
        <ele>1554.378289</ele>
        <time>2021-12-04T11:01:43.366Z</time>
      </trkpt>
      <trkpt lat="40.30688" lon="41.52958">
        <ele>1564.357584</ele>
        <time>2021-12-04T11:03:57.365Z</time>
      </trkpt>
      <trkpt lat="40.30536" lon="41.53119">
        <ele>1569.671787</ele>
        <time>2021-12-04T11:05:53.376Z</time>
      </trkpt>
      <trkpt lat="40.30367" lon="41.53252">
        <ele>1578.589409</ele>
        <time>2021-12-04T11:07:27.354Z</time>
      </trkpt>
      <trkpt lat="40.30292" lon="41.53492">
        <ele>1583.925519</ele>
        <time>2021-12-04T11:08:40.441Z</time>
      </trkpt>
      <trkpt lat="40.30195" lon="41.53735">
        <ele>1582.971874</ele>
        <time>2021-12-04T11:09:53.375Z</time>
      </trkpt>
      <trkpt lat="40.30097" lon="41.53982">
        <ele>1585.817893</ele>
        <time>2021-12-04T11:11:11.385Z</time>
      </trkpt>
      <trkpt lat="40.30005" lon="41.54226">
        <ele>1589.957737</ele>
        <time>2021-12-04T11:12:33.366Z</time>
      </trkpt>
      <trkpt lat="40.29881" lon="41.5445">
        <ele>1594.471902</ele>
        <time>2021-12-04T11:14:08.399Z</time>
      </trkpt>
      <trkpt lat="40.29706" lon="41.54553">
        <ele>1610.144184</ele>
        <time>2021-12-04T11:16:09.406Z</time>
      </trkpt>
      <trkpt lat="40.29517" lon="41.54617">
        <ele>1613.711096</ele>
        <time>2021-12-04T11:18:00.376Z</time>
      </trkpt>
      <trkpt lat="40.29493" lon="41.54724">
        <ele>1613.711096</ele>
        <time>2021-12-04T11:22:06.130Z</time>
      </trkpt>
    </trkseg>
  </trk>
</gpx>